sensor_id;sensor_type;location;lat;lon;timestamp;temperature;humidity
70706;DHT22;59320;52.316;10.870;2023-05-08T00:01:58;10.10;92.20
70706;DHT22;59320;52.316;10.870;2023-05-08T00:04:25;10.10;91.80
70706;DHT22;59320;52.316;10.870;2023-05-08T00:06:53;10.20;91.70
70706;DHT22;59320;52.316;10.870;2023-05-08T00:09:20;10.00;92.10
70706;DHT22;59320;52.316;10.870;2023-05-08T00:11:48;10.00;92.00
70706;DHT22;59320;52.316;10.870;2023-05-08T00:14:15;10.00;92.10
70706;DHT22;59320;52.316;10.870;2023-05-08T00:16:42;10.00;92.20
70706;DHT22;59320;52.316;10.870;2023-05-08T00:19:09;9.90;92.40
70706;DHT22;59320;52.316;10.870;2023-05-08T00:21:36;9.90;92.30
70706;DHT22;59320;52.316;10.870;2023-05-08T00:24:05;9.90;92.40
70706;DHT22;59320;52.316;10.870;2023-05-08T00:26:32;9.90;92.40
70706;DHT22;59320;52.316;10.870;2023-05-08T00:28:59;9.80;92.50
70706;DHT22;59320;52.316;10.870;2023-05-08T00:31:26;9.80;92.20
70706;DHT22;59320;52.316;10.870;2023-05-08T00:33:53;9.90;92.20
70706;DHT22;59320;52.316;10.870;2023-05-08T00:36:20;9.80;92.40
70706;DHT22;59320;52.316;10.870;2023-05-08T00:38:47;9.80;92.50
70706;DHT22;59320;52.316;10.870;2023-05-08T00:41:16;9.70;92.70
70706;DHT22;59320;52.316;10.870;2023-05-08T00:43:43;9.60;92.70
70706;DHT22;59320;52.316;10.870;2023-05-08T00:46:10;9.60;92.90
70706;DHT22;59320;52.316;10.870;2023-05-08T00:48:38;9.60;92.90
70706;DHT22;59320;52.316;10.870;2023-05-08T00:51:06;9.60;92.90
70706;DHT22;59320;52.316;10.870;2023-05-08T00:53:36;9.60;92.70
70706;DHT22;59320;52.316;10.870;2023-05-08T00:56:05;9.70;92.90
70706;DHT22;59320;52.316;10.870;2023-05-08T00:58:33;9.70;92.70
70706;DHT22;59320;52.316;10.870;2023-05-08T01:01:01;9.60;93.10
70706;DHT22;59320;52.316;10.870;2023-05-08T01:03:30;9.50;93.00
70706;DHT22;59320;52.316;10.870;2023-05-08T01:05:58;9.60;93.00
70706;DHT22;59320;52.316;10.870;2023-05-08T01:08:25;9.60;92.90
70706;DHT22;59320;52.316;10.870;2023-05-08T01:11:00;9.60;92.80
70706;DHT22;59320;52.316;10.870;2023-05-08T01:13:39;9.60;92.90
70706;DHT22;59320;52.316;10.870;2023-05-08T01:16:13;9.50;92.90
70706;DHT22;59320;52.316;10.870;2023-05-08T01:18:44;9.50;92.80
70706;DHT22;59320;52.316;10.870;2023-05-08T01:21:20;9.60;92.80
70706;DHT22;59320;52.316;10.870;2023-05-08T01:24:24;9.50;92.80
70706;DHT22;59320;52.316;10.870;2023-05-08T01:27:29;9.40;93.10
70706;DHT22;59320;52.316;10.870;2023-05-08T01:30:37;9.50;92.80
70706;DHT22;59320;52.316;10.870;2023-05-08T01:33:16;9.40;93.10
70706;DHT22;59320;52.316;10.870;2023-05-08T01:35:49;9.30;92.90
70706;DHT22;59320;52.316;10.870;2023-05-08T01:38:21;9.30;93.40
70706;DHT22;59320;52.316;10.870;2023-05-08T01:40:55;9.20;93.70
70706;DHT22;59320;52.316;10.870;2023-05-08T01:43:30;9.10;93.60
70706;DHT22;59320;52.316;10.870;2023-05-08T01:46:04;9.10;93.90
70706;DHT22;59320;52.316;10.870;2023-05-08T01:48:34;8.90;94.10
70706;DHT22;59320;52.316;10.870;2023-05-08T01:51:07;8.80;94.50
70706;DHT22;59320;52.316;10.870;2023-05-08T01:53:42;8.80;94.50
70706;DHT22;59320;52.316;10.870;2023-05-08T01:56:13;8.80;94.60
70706;DHT22;59320;52.316;10.870;2023-05-08T01:58:42;8.60;95.10
70706;DHT22;59320;52.316;10.870;2023-05-08T02:01:11;8.70;94.90
70706;DHT22;59320;52.316;10.870;2023-05-08T02:03:41;8.80;94.60
70706;DHT22;59320;52.316;10.870;2023-05-08T02:06:13;8.90;94.20
70706;DHT22;59320;52.316;10.870;2023-05-08T02:08:42;8.90;94.30
70706;DHT22;59320;52.316;10.870;2023-05-08T02:11:11;8.90;94.10
70706;DHT22;59320;52.316;10.870;2023-05-08T02:13:39;8.90;94.10
70706;DHT22;59320;52.316;10.870;2023-05-08T02:16:08;8.90;94.30
70706;DHT22;59320;52.316;10.870;2023-05-08T02:18:40;8.90;94.00
70706;DHT22;59320;52.316;10.870;2023-05-08T02:21:10;8.90;94.30
70706;DHT22;59320;52.316;10.870;2023-05-08T02:23:38;8.90;94.10
70706;DHT22;59320;52.316;10.870;2023-05-08T02:26:07;8.90;93.90
70706;DHT22;59320;52.316;10.870;2023-05-08T02:28:35;8.90;93.80
70706;DHT22;59320;52.316;10.870;2023-05-08T02:31:04;8.90;93.90
70706;DHT22;59320;52.316;10.870;2023-05-08T02:33:33;8.90;93.90
70706;DHT22;59320;52.316;10.870;2023-05-08T02:36:03;8.90;93.90
70706;DHT22;59320;52.316;10.870;2023-05-08T02:38:30;8.80;94.30
70706;DHT22;59320;52.316;10.870;2023-05-08T02:41:00;8.80;94.20
70706;DHT22;59320;52.316;10.870;2023-05-08T02:43:29;8.80;94.10
70706;DHT22;59320;52.316;10.870;2023-05-08T02:46:04;8.70;94.20
70706;DHT22;59320;52.316;10.870;2023-05-08T02:48:37;8.60;94.50
70706;DHT22;59320;52.316;10.870;2023-05-08T02:51:14;8.60;94.40
70706;DHT22;59320;52.316;10.870;2023-05-08T02:53:47;8.50;94.10
70706;DHT22;59320;52.316;10.870;2023-05-08T02:56:20;8.50;93.80
70706;DHT22;59320;52.316;10.870;2023-05-08T02:58:54;8.40;93.80
70706;DHT22;59320;52.316;10.870;2023-05-08T03:01:26;8.40;94.30
70706;DHT22;59320;52.316;10.870;2023-05-08T03:04:00;8.40;94.30
70706;DHT22;59320;52.316;10.870;2023-05-08T03:06:37;8.30;94.30
70706;DHT22;59320;52.316;10.870;2023-05-08T03:09:07;8.40;94.20
70706;DHT22;59320;52.316;10.870;2023-05-08T03:11:39;8.40;94.10
70706;DHT22;59320;52.316;10.870;2023-05-08T03:14:10;8.30;94.10
70706;DHT22;59320;52.316;10.870;2023-05-08T03:16:40;8.20;94.70
70706;DHT22;59320;52.316;10.870;2023-05-08T03:19:14;8.10;95.10
70706;DHT22;59320;52.316;10.870;2023-05-08T03:21:45;7.90;95.90
70706;DHT22;59320;52.316;10.870;2023-05-08T03:24:14;7.80;96.40
70706;DHT22;59320;52.316;10.870;2023-05-08T03:26:43;7.70;96.80
70706;DHT22;59320;52.316;10.870;2023-05-08T03:29:12;7.80;96.20
70706;DHT22;59320;52.316;10.870;2023-05-08T03:31:41;7.90;96.10
70706;DHT22;59320;52.316;10.870;2023-05-08T03:34:11;8.10;95.70
70706;DHT22;59320;52.316;10.870;2023-05-08T03:36:39;8.10;95.50
70706;DHT22;59320;52.316;10.870;2023-05-08T03:39:08;8.20;95.30
70706;DHT22;59320;52.316;10.870;2023-05-08T03:41:35;8.20;95.10
70706;DHT22;59320;52.316;10.870;2023-05-08T03:44:02;8.30;95.10
70706;DHT22;59320;52.316;10.870;2023-05-08T03:46:30;8.30;95.50
70706;DHT22;59320;52.316;10.870;2023-05-08T03:49:00;8.30;94.90
70706;DHT22;59320;52.316;10.870;2023-05-08T03:51:30;8.30;94.90
70706;DHT22;59320;52.316;10.870;2023-05-08T03:53:57;8.40;94.90
70706;DHT22;59320;52.316;10.870;2023-05-08T03:56:27;8.30;94.70
70706;DHT22;59320;52.316;10.870;2023-05-08T03:58:57;8.40;94.90
70706;DHT22;59320;52.316;10.870;2023-05-08T04:01:32;8.20;95.20
70706;DHT22;59320;52.316;10.870;2023-05-08T04:04:08;8.20;95.50
70706;DHT22;59320;52.316;10.870;2023-05-08T04:06:41;8.30;95.30
70706;DHT22;59320;52.316;10.870;2023-05-08T04:09:12;8.40;95.10
70706;DHT22;59320;52.316;10.870;2023-05-08T04:11:47;8.50;95.20
70706;DHT22;59320;52.316;10.870;2023-05-08T04:14:19;8.60;94.70
70706;DHT22;59320;52.316;10.870;2023-05-08T04:16:50;8.60;94.70
70706;DHT22;59320;52.316;10.870;2023-05-08T04:19:21;8.70;94.80
70706;DHT22;59320;52.316;10.870;2023-05-08T04:21:50;8.60;94.80
70706;DHT22;59320;52.316;10.870;2023-05-08T04:24:22;8.70;94.90
70706;DHT22;59320;52.316;10.870;2023-05-08T04:26:53;8.70;94.90
70706;DHT22;59320;52.316;10.870;2023-05-08T04:29:21;8.70;95.00
70706;DHT22;59320;52.316;10.870;2023-05-08T04:31:48;8.80;95.00
70706;DHT22;59320;52.316;10.870;2023-05-08T04:34:17;8.90;94.80
70706;DHT22;59320;52.316;10.870;2023-05-08T04:36:44;9.00;94.80
70706;DHT22;59320;52.316;10.870;2023-05-08T04:39:13;9.00;94.70
70706;DHT22;59320;52.316;10.870;2023-05-08T04:41:41;9.10;94.50
70706;DHT22;59320;52.316;10.870;2023-05-08T04:44:09;9.10;94.40
70706;DHT22;59320;52.316;10.870;2023-05-08T04:46:37;9.10;94.40
70706;DHT22;59320;52.316;10.870;2023-05-08T04:49:04;9.20;94.30
70706;DHT22;59320;52.316;10.870;2023-05-08T04:51:32;9.30;94.30
70706;DHT22;59320;52.316;10.870;2023-05-08T04:53:59;9.40;94.20
70706;DHT22;59320;52.316;10.870;2023-05-08T04:56:27;9.40;94.10
70706;DHT22;59320;52.316;10.870;2023-05-08T04:58:54;9.50;94.10
70706;DHT22;59320;52.316;10.870;2023-05-08T05:01:22;9.50;94.10
70706;DHT22;59320;52.316;10.870;2023-05-08T05:03:50;9.60;94.00
70706;DHT22;59320;52.316;10.870;2023-05-08T05:06:17;9.60;93.80
70706;DHT22;59320;52.316;10.870;2023-05-08T05:08:44;9.60;93.80
70706;DHT22;59320;52.316;10.870;2023-05-08T05:11:12;9.70;93.60
70706;DHT22;59320;52.316;10.870;2023-05-08T05:13:39;9.90;93.50
70706;DHT22;59320;52.316;10.870;2023-05-08T05:16:06;9.90;93.40
70706;DHT22;59320;52.316;10.870;2023-05-08T05:18:35;9.90;93.20
70706;DHT22;59320;52.316;10.870;2023-05-08T05:21:02;10.00;93.30
70706;DHT22;59320;52.316;10.870;2023-05-08T05:23:29;10.00;93.40
70706;DHT22;59320;52.316;10.870;2023-05-08T05:25:57;10.10;93.00
70706;DHT22;59320;52.316;10.870;2023-05-08T05:28:24;10.20;93.00
70706;DHT22;59320;52.316;10.870;2023-05-08T05:30:51;10.20;92.80
70706;DHT22;59320;52.316;10.870;2023-05-08T05:33:19;10.40;92.60
70706;DHT22;59320;52.316;10.870;2023-05-08T05:35:47;10.30;92.40
70706;DHT22;59320;52.316;10.870;2023-05-08T05:38:14;10.40;92.40
70706;DHT22;59320;52.316;10.870;2023-05-08T05:40:41;10.40;92.40
70706;DHT22;59320;52.316;10.870;2023-05-08T05:43:08;10.50;92.30
70706;DHT22;59320;52.316;10.870;2023-05-08T05:45:36;10.50;92.50
70706;DHT22;59320;52.316;10.870;2023-05-08T05:48:04;10.50;92.20
70706;DHT22;59320;52.316;10.870;2023-05-08T05:50:32;10.60;92.10
70706;DHT22;59320;52.316;10.870;2023-05-08T05:53:01;10.70;92.10
70706;DHT22;59320;52.316;10.870;2023-05-08T05:55:28;10.80;92.10
70706;DHT22;59320;52.316;10.870;2023-05-08T05:57:56;10.90;92.00
70706;DHT22;59320;52.316;10.870;2023-05-08T06:00:23;10.90;91.70
70706;DHT22;59320;52.316;10.870;2023-05-08T06:02:54;10.90;91.50
70706;DHT22;59320;52.316;10.870;2023-05-08T06:05:21;10.90;91.50
70706;DHT22;59320;52.316;10.870;2023-05-08T06:07:48;11.00;91.30
70706;DHT22;59320;52.316;10.870;2023-05-08T06:10:17;11.00;91.50
70706;DHT22;59320;52.316;10.870;2023-05-08T06:12:44;11.10;91.20
70706;DHT22;59320;52.316;10.870;2023-05-08T06:15:12;11.30;91.40
70706;DHT22;59320;52.316;10.870;2023-05-08T06:17:42;11.30;91.20
70706;DHT22;59320;52.316;10.870;2023-05-08T06:20:10;11.40;91.20
70706;DHT22;59320;52.316;10.870;2023-05-08T06:22:38;11.50;90.70
70706;DHT22;59320;52.316;10.870;2023-05-08T06:25:06;11.50;90.70
70706;DHT22;59320;52.316;10.870;2023-05-08T06:27:35;11.60;90.40
70706;DHT22;59320;52.316;10.870;2023-05-08T06:30:04;11.60;90.50
70706;DHT22;59320;52.316;10.870;2023-05-08T06:32:32;11.60;90.50
70706;DHT22;59320;52.316;10.870;2023-05-08T06:35:00;11.70;90.30
70706;DHT22;59320;52.316;10.870;2023-05-08T06:37:27;11.70;89.90
70706;DHT22;59320;52.316;10.870;2023-05-08T06:39:54;11.80;90.10
70706;DHT22;59320;52.316;10.870;2023-05-08T06:42:21;11.90;90.30
70706;DHT22;59320;52.316;10.870;2023-05-08T06:44:50;11.90;90.00
70706;DHT22;59320;52.316;10.870;2023-05-08T06:47:18;12.00;89.70
70706;DHT22;59320;52.316;10.870;2023-05-08T06:49:45;11.90;89.80
70706;DHT22;59320;52.316;10.870;2023-05-08T06:52:12;11.90;89.50
70706;DHT22;59320;52.316;10.870;2023-05-08T06:54:39;12.00;89.50
70706;DHT22;59320;52.316;10.870;2023-05-08T06:57:06;12.00;88.80
70706;DHT22;59320;52.316;10.870;2023-05-08T06:59:34;12.00;89.00
70706;DHT22;59320;52.316;10.870;2023-05-08T07:02:03;12.00;89.60
70706;DHT22;59320;52.316;10.870;2023-05-08T07:04:30;12.00;89.50
70706;DHT22;59320;52.316;10.870;2023-05-08T07:06:57;12.20;88.60
70706;DHT22;59320;52.316;10.870;2023-05-08T07:09:25;12.30;87.80
70706;DHT22;59320;52.316;10.870;2023-05-08T07:11:52;12.40;87.40
70706;DHT22;59320;52.316;10.870;2023-05-08T07:14:19;12.50;87.60
70706;DHT22;59320;52.316;10.870;2023-05-08T07:16:46;12.70;87.60
70706;DHT22;59320;52.316;10.870;2023-05-08T07:19:15;12.80;87.20
70706;DHT22;59320;52.316;10.870;2023-05-08T07:21:42;13.00;85.20
70706;DHT22;59320;52.316;10.870;2023-05-08T07:24:10;13.10;85.50
70706;DHT22;59320;52.316;10.870;2023-05-08T07:26:38;13.20;85.20
70706;DHT22;59320;52.316;10.870;2023-05-08T07:29:05;13.30;84.40
70706;DHT22;59320;52.316;10.870;2023-05-08T07:31:32;13.50;84.90
70706;DHT22;59320;52.316;10.870;2023-05-08T07:34:00;13.50;84.00
70706;DHT22;59320;52.316;10.870;2023-05-08T07:36:28;13.60;84.60
70706;DHT22;59320;52.316;10.870;2023-05-08T07:38:55;13.60;84.60
70706;DHT22;59320;52.316;10.870;2023-05-08T07:41:22;13.70;83.20
70706;DHT22;59320;52.316;10.870;2023-05-08T07:43:51;13.80;82.60
70706;DHT22;59320;52.316;10.870;2023-05-08T07:46:18;13.80;81.90
70706;DHT22;59320;52.316;10.870;2023-05-08T07:48:45;13.80;81.70
70706;DHT22;59320;52.316;10.870;2023-05-08T07:51:12;14.00;81.60
70706;DHT22;59320;52.316;10.870;2023-05-08T07:53:41;14.10;80.50
70706;DHT22;59320;52.316;10.870;2023-05-08T07:56:08;14.20;80.70
70706;DHT22;59320;52.316;10.870;2023-05-08T07:58:35;14.20;79.70
70706;DHT22;59320;52.316;10.870;2023-05-08T08:01:02;14.30;79.80
70706;DHT22;59320;52.316;10.870;2023-05-08T08:03:29;14.40;79.60
70706;DHT22;59320;52.316;10.870;2023-05-08T08:05:56;14.40;80.00
70706;DHT22;59320;52.316;10.870;2023-05-08T08:08:23;14.50;79.20
70706;DHT22;59320;52.316;10.870;2023-05-08T08:10:52;14.70;77.40
70706;DHT22;59320;52.316;10.870;2023-05-08T08:13:19;14.70;77.40
70706;DHT22;59320;52.316;10.870;2023-05-08T08:15:46;14.80;78.20
70706;DHT22;59320;52.316;10.870;2023-05-08T08:18:13;14.90;76.60
70706;DHT22;59320;52.316;10.870;2023-05-08T08:20:40;15.10;76.20
70706;DHT22;59320;52.316;10.870;2023-05-08T08:23:07;15.10;74.80
70706;DHT22;59320;52.316;10.870;2023-05-08T08:25:34;15.10;74.30
70706;DHT22;59320;52.316;10.870;2023-05-08T08:28:03;15.20;74.50
70706;DHT22;59320;52.316;10.870;2023-05-08T08:30:30;15.30;74.40
70706;DHT22;59320;52.316;10.870;2023-05-08T08:32:57;15.30;72.40
70706;DHT22;59320;52.316;10.870;2023-05-08T08:35:27;15.30;72.30
70706;DHT22;59320;52.316;10.870;2023-05-08T08:37:54;15.30;72.70
70706;DHT22;59320;52.316;10.870;2023-05-08T08:40:22;15.40;72.70
70706;DHT22;59320;52.316;10.870;2023-05-08T08:42:49;15.40;73.20
70706;DHT22;59320;52.316;10.870;2023-05-08T08:45:17;15.20;74.10
70706;DHT22;59320;52.316;10.870;2023-05-08T08:47:44;15.30;74.00
70706;DHT22;59320;52.316;10.870;2023-05-08T08:50:13;15.40;72.70
70706;DHT22;59320;52.316;10.870;2023-05-08T08:52:46;15.40;72.50
70706;DHT22;59320;52.316;10.870;2023-05-08T08:55:15;15.50;71.60
70706;DHT22;59320;52.316;10.870;2023-05-08T08:57:51;15.60;70.60
70706;DHT22;59320;52.316;10.870;2023-05-08T09:00:22;15.70;70.90
70706;DHT22;59320;52.316;10.870;2023-05-08T09:02:52;15.60;70.60
70706;DHT22;59320;52.316;10.870;2023-05-08T09:05:21;15.60;72.10
70706;DHT22;59320;52.316;10.870;2023-05-08T09:07:48;15.70;70.00
70706;DHT22;59320;52.316;10.870;2023-05-08T09:10:16;15.80;69.80
70706;DHT22;59320;52.316;10.870;2023-05-08T09:12:43;16.00;68.00
70706;DHT22;59320;52.316;10.870;2023-05-08T09:15:10;16.10;68.60
70706;DHT22;59320;52.316;10.870;2023-05-08T09:17:39;16.10;68.70
70706;DHT22;59320;52.316;10.870;2023-05-08T09:20:07;16.30;68.60
70706;DHT22;59320;52.316;10.870;2023-05-08T09:22:35;16.50;68.50
70706;DHT22;59320;52.316;10.870;2023-05-08T09:25:03;16.70;67.60
70706;DHT22;59320;52.316;10.870;2023-05-08T09:27:30;16.80;67.90
70706;DHT22;59320;52.316;10.870;2023-05-08T09:30:00;16.80;67.80
70706;DHT22;59320;52.316;10.870;2023-05-08T09:32:28;16.80;68.30
70706;DHT22;59320;52.316;10.870;2023-05-08T09:34:57;16.90;67.50
70706;DHT22;59320;52.316;10.870;2023-05-08T09:37:25;17.00;67.30
70706;DHT22;59320;52.316;10.870;2023-05-08T09:39:53;16.90;67.50
70706;DHT22;59320;52.316;10.870;2023-05-08T09:42:20;16.90;67.30
70706;DHT22;59320;52.316;10.870;2023-05-08T09:44:51;17.00;66.90
70706;DHT22;59320;52.316;10.870;2023-05-08T09:47:20;17.00;66.70
70706;DHT22;59320;52.316;10.870;2023-05-08T09:49:59;17.10;66.40
70706;DHT22;59320;52.316;10.870;2023-05-08T09:52:27;17.00;65.70
70706;DHT22;59320;52.316;10.870;2023-05-08T09:54:57;17.10;66.20
70706;DHT22;59320;52.316;10.870;2023-05-08T09:57:25;17.10;65.70
70706;DHT22;59320;52.316;10.870;2023-05-08T10:00:00;17.20;66.20
70706;DHT22;59320;52.316;10.870;2023-05-08T10:02:29;17.20;67.10
70706;DHT22;59320;52.316;10.870;2023-05-08T10:05:00;17.40;66.10
70706;DHT22;59320;52.316;10.870;2023-05-08T10:07:28;17.50;65.90
70706;DHT22;59320;52.316;10.870;2023-05-08T10:09:59;17.40;65.50
70706;DHT22;59320;52.316;10.870;2023-05-08T10:12:28;17.40;65.50
70706;DHT22;59320;52.316;10.870;2023-05-08T10:14:55;17.50;65.50
70706;DHT22;59320;52.316;10.870;2023-05-08T10:17:30;17.50;64.70
70706;DHT22;59320;52.316;10.870;2023-05-08T10:20:06;17.60;65.00
70706;DHT22;59320;52.316;10.870;2023-05-08T10:22:35;17.70;64.00
70706;DHT22;59320;52.316;10.870;2023-05-08T10:25:09;17.80;63.80
70706;DHT22;59320;52.316;10.870;2023-05-08T10:27:42;17.70;63.90
70706;DHT22;59320;52.316;10.870;2023-05-08T10:30:12;17.80;64.50
70706;DHT22;59320;52.316;10.870;2023-05-08T10:32:43;17.90;64.60
70706;DHT22;59320;52.316;10.870;2023-05-08T10:35:12;17.90;63.50
70706;DHT22;59320;52.316;10.870;2023-05-08T10:37:44;18.10;64.20
70706;DHT22;59320;52.316;10.870;2023-05-08T10:40:12;18.10;62.30
70706;DHT22;59320;52.316;10.870;2023-05-08T10:42:41;18.10;63.20
70706;DHT22;59320;52.316;10.870;2023-05-08T10:45:08;18.10;61.80
70706;DHT22;59320;52.316;10.870;2023-05-08T10:47:46;18.20;62.30
70706;DHT22;59320;52.316;10.870;2023-05-08T10:50:30;18.20;61.30
70706;DHT22;59320;52.316;10.870;2023-05-08T10:53:04;18.20;61.80
70706;DHT22;59320;52.316;10.870;2023-05-08T10:55:35;18.30;63.10
70706;DHT22;59320;52.316;10.870;2023-05-08T10:58:04;18.40;62.40
70706;DHT22;59320;52.316;10.870;2023-05-08T11:01:09;18.50;62.20
70706;DHT22;59320;52.316;10.870;2023-05-08T11:03:25;18.60;61.80
70706;DHT22;59320;52.316;10.870;2023-05-08T11:05:55;18.80;62.80
70706;DHT22;59320;52.316;10.870;2023-05-08T11:08:24;18.80;61.90
70706;DHT22;59320;52.316;10.870;2023-05-08T11:11:04;18.90;61.70
70706;DHT22;59320;52.316;10.870;2023-05-08T11:13:36;18.80;61.10
70706;DHT22;59320;52.316;10.870;2023-05-08T11:16:04;18.80;60.70
70706;DHT22;59320;52.316;10.870;2023-05-08T11:18:32;19.00;60.70
70706;DHT22;59320;52.316;10.870;2023-05-08T11:21:03;19.20;60.90
70706;DHT22;59320;52.316;10.870;2023-05-08T11:23:31;19.40;60.10
70706;DHT22;59320;52.316;10.870;2023-05-08T11:25:59;19.50;60.20
70706;DHT22;59320;52.316;10.870;2023-05-08T11:28:27;19.70;59.90
70706;DHT22;59320;52.316;10.870;2023-05-08T11:31:01;19.90;56.50
70706;DHT22;59320;52.316;10.870;2023-05-08T11:33:29;20.00;56.20
70706;DHT22;59320;52.316;10.870;2023-05-08T11:35:59;20.10;56.80
70706;DHT22;59320;52.316;10.870;2023-05-08T11:38:32;20.20;56.10
70706;DHT22;59320;52.316;10.870;2023-05-08T11:41:02;20.20;54.80
70706;DHT22;59320;52.316;10.870;2023-05-08T11:44:16;20.20;56.10
70706;DHT22;59320;52.316;10.870;2023-05-08T11:46:48;20.30;55.20
70706;DHT22;59320;52.316;10.870;2023-05-08T11:49:17;20.40;54.20
70706;DHT22;59320;52.316;10.870;2023-05-08T11:51:46;20.60;54.70
70706;DHT22;59320;52.316;10.870;2023-05-08T11:54:17;20.70;55.00
70706;DHT22;59320;52.316;10.870;2023-05-08T11:56:45;20.60;54.40
70706;DHT22;59320;52.316;10.870;2023-05-08T11:59:12;20.50;54.00
70706;DHT22;59320;52.316;10.870;2023-05-08T12:01:39;20.50;54.10
70706;DHT22;59320;52.316;10.870;2023-05-08T12:04:08;20.60;54.20
70706;DHT22;59320;52.316;10.870;2023-05-08T12:06:37;20.70;54.50
70706;DHT22;59320;52.316;10.870;2023-05-08T12:09:10;20.60;54.50
70706;DHT22;59320;52.316;10.870;2023-05-08T12:11:38;20.60;54.90
70706;DHT22;59320;52.316;10.870;2023-05-08T12:14:08;20.70;54.70
70706;DHT22;59320;52.316;10.870;2023-05-08T12:16:36;20.80;54.60
70706;DHT22;59320;52.316;10.870;2023-05-08T12:19:07;20.90;54.30
70706;DHT22;59320;52.316;10.870;2023-05-08T12:21:35;20.90;54.70
70706;DHT22;59320;52.316;10.870;2023-05-08T12:24:04;20.90;54.20
70706;DHT22;59320;52.316;10.870;2023-05-08T12:26:34;20.90;53.20
70706;DHT22;59320;52.316;10.870;2023-05-08T12:29:04;21.00;54.40
70706;DHT22;59320;52.316;10.870;2023-05-08T12:31:32;21.20;53.60
70706;DHT22;59320;52.316;10.870;2023-05-08T12:34:00;21.40;53.40
70706;DHT22;59320;52.316;10.870;2023-05-08T12:36:27;21.30;52.20
70706;DHT22;59320;52.316;10.870;2023-05-08T12:39:08;21.20;52.50
70706;DHT22;59320;52.316;10.870;2023-05-08T12:41:41;21.20;52.60
70706;DHT22;59320;52.316;10.870;2023-05-08T12:44:17;21.40;53.60
70706;DHT22;59320;52.316;10.870;2023-05-08T12:46:46;21.40;52.40
70706;DHT22;59320;52.316;10.870;2023-05-08T12:49:13;21.50;52.10
70706;DHT22;59320;52.316;10.870;2023-05-08T12:51:44;21.50;52.40
70706;DHT22;59320;52.316;10.870;2023-05-08T12:54:12;21.70;51.40
70706;DHT22;59320;52.316;10.870;2023-05-08T12:56:41;21.90;51.10
70706;DHT22;59320;52.316;10.870;2023-05-08T12:59:09;22.10;50.40
70706;DHT22;59320;52.316;10.870;2023-05-08T13:01:37;22.50;50.40
70706;DHT22;59320;52.316;10.870;2023-05-08T13:04:06;22.90;49.50
70706;DHT22;59320;52.316;10.870;2023-05-08T13:06:33;24.00;49.10
70706;DHT22;59320;52.316;10.870;2023-05-08T13:09:00;25.20;46.90
70706;DHT22;59320;52.316;10.870;2023-05-08T13:11:28;26.00;43.00
70706;DHT22;59320;52.316;10.870;2023-05-08T13:13:56;26.90;42.80
70706;DHT22;59320;52.316;10.870;2023-05-08T13:16:23;27.70;40.50
70706;DHT22;59320;52.316;10.870;2023-05-08T13:18:52;28.30;38.20
70706;DHT22;59320;52.316;10.870;2023-05-08T13:21:19;28.70;37.70
70706;DHT22;59320;52.316;10.870;2023-05-08T13:23:46;27.70;37.80
70706;DHT22;59320;52.316;10.870;2023-05-08T13:26:13;26.60;39.30
70706;DHT22;59320;52.316;10.870;2023-05-08T13:28:40;25.60;39.90
70706;DHT22;59320;52.316;10.870;2023-05-08T13:31:07;25.00;41.00
70706;DHT22;59320;52.316;10.870;2023-05-08T13:33:34;24.60;41.10
70706;DHT22;59320;52.316;10.870;2023-05-08T13:36:07;24.20;41.80
70706;DHT22;59320;52.316;10.870;2023-05-08T13:38:34;23.70;42.20
70706;DHT22;59320;52.316;10.870;2023-05-08T13:41:01;23.50;43.50
70706;DHT22;59320;52.316;10.870;2023-05-08T13:43:29;23.30;43.00
70706;DHT22;59320;52.316;10.870;2023-05-08T13:45:56;23.20;44.00
70706;DHT22;59320;52.316;10.870;2023-05-08T13:48:23;23.30;44.50
70706;DHT22;59320;52.316;10.870;2023-05-08T13:50:50;23.20;44.00
70706;DHT22;59320;52.316;10.870;2023-05-08T13:53:18;23.00;43.50
70706;DHT22;59320;52.316;10.870;2023-05-08T13:55:45;22.80;44.30
70706;DHT22;59320;52.316;10.870;2023-05-08T13:58:13;22.70;44.50
70706;DHT22;59320;52.316;10.870;2023-05-08T14:00:40;22.60;44.50
70706;DHT22;59320;52.316;10.870;2023-05-08T14:03:07;22.60;44.90
70706;DHT22;59320;52.316;10.870;2023-05-08T14:05:34;22.40;44.80
70706;DHT22;59320;52.316;10.870;2023-05-08T14:08:01;22.30;45.00
70706;DHT22;59320;52.316;10.870;2023-05-08T14:10:31;22.40;44.50
70706;DHT22;59320;52.316;10.870;2023-05-08T14:12:58;22.50;44.50
70706;DHT22;59320;52.316;10.870;2023-05-08T14:15:25;22.60;44.40
70706;DHT22;59320;52.316;10.870;2023-05-08T14:17:54;22.50;44.00
70706;DHT22;59320;52.316;10.870;2023-05-08T14:20:21;22.50;44.10
70706;DHT22;59320;52.316;10.870;2023-05-08T14:22:48;22.40;44.80
70706;DHT22;59320;52.316;10.870;2023-05-08T14:25:16;22.40;44.60
70706;DHT22;59320;52.316;10.870;2023-05-08T14:27:44;22.50;45.10
70706;DHT22;59320;52.316;10.870;2023-05-08T14:30:12;22.80;45.20
70706;DHT22;59320;52.316;10.870;2023-05-08T14:32:45;25.20;42.70
70706;DHT22;59320;52.316;10.870;2023-05-08T14:35:12;28.30;38.90
70706;DHT22;59320;52.316;10.870;2023-05-08T14:37:39;30.70;36.30
70706;DHT22;59320;52.316;10.870;2023-05-08T14:40:07;32.60;33.50
70706;DHT22;59320;52.316;10.870;2023-05-08T14:42:35;34.20;31.20
70706;DHT22;59320;52.316;10.870;2023-05-08T14:45:19;35.00;29.00
70706;DHT22;59320;52.316;10.870;2023-05-08T14:47:47;34.90;28.90
70706;DHT22;59320;52.316;10.870;2023-05-08T14:50:15;33.10;29.50
70706;DHT22;59320;52.316;10.870;2023-05-08T14:52:43;32.50;29.20
70706;DHT22;59320;52.316;10.870;2023-05-08T14:55:10;32.40;29.50
70706;DHT22;59320;52.316;10.870;2023-05-08T14:57:37;33.40;29.60
70706;DHT22;59320;52.316;10.870;2023-05-08T15:00:06;34.70;27.80
70706;DHT22;59320;52.316;10.870;2023-05-08T15:02:34;35.10;26.90
70706;DHT22;59320;52.316;10.870;2023-05-08T15:05:01;35.90;26.90
70706;DHT22;59320;52.316;10.870;2023-05-08T15:07:31;36.00;26.40
70706;DHT22;59320;52.316;10.870;2023-05-08T15:09:58;36.30;26.30
70706;DHT22;59320;52.316;10.870;2023-05-08T15:12:25;37.10;26.30
70706;DHT22;59320;52.316;10.870;2023-05-08T15:14:52;37.90;25.30
70706;DHT22;59320;52.316;10.870;2023-05-08T15:17:19;38.00;24.70
70706;DHT22;59320;52.316;10.870;2023-05-08T15:19:49;38.00;24.30
70706;DHT22;59320;52.316;10.870;2023-05-08T15:22:16;38.20;23.40
70706;DHT22;59320;52.316;10.870;2023-05-08T15:24:43;38.70;23.50
70706;DHT22;59320;52.316;10.870;2023-05-08T15:27:10;39.30;23.80
70706;DHT22;59320;52.316;10.870;2023-05-08T15:29:40;39.80;21.80
70706;DHT22;59320;52.316;10.870;2023-05-08T15:32:10;40.20;22.10
70706;DHT22;59320;52.316;10.870;2023-05-08T15:34:40;39.80;20.40